sensor_id;sensor_type;location;lat;lon;timestamp;P1;durP1;ratioP1;P2;durP2;ratioP2
55409;SDS011;41279;43.546;16.426;2022-07-23T00:02:20;13.18;;;6.45;;
55409;SDS011;41279;43.546;16.426;2022-07-23T00:04:45;8.80;;;6.50;;
55409;SDS011;41279;43.546;16.426;2022-07-23T00:07:11;11.38;;;6.65;;
55409;SDS011;41279;43.546;16.426;2022-07-23T00:09:36;9.80;;;7.00;;
55409;SDS011;41279;43.546;16.426;2022-07-23T00:12:02;9.15;;;6.53;;
55409;SDS011;41279;43.546;16.426;2022-07-23T00:14:27;10.05;;;5.68;;
55409;SDS011;41279;43.546;16.426;2022-07-23T00:16:53;10.10;;;6.30;;
55409;SDS011;41279;43.546;16.426;2022-07-23T00:19:24;10.73;;;6.07;;
55409;SDS011;41279;43.546;16.426;2022-07-23T00:21:50;14.27;;;6.10;;
55409;SDS011;41279;43.546;16.426;2022-07-23T00:24:15;11.10;;;6.10;;
55409;SDS011;41279;43.546;16.426;2022-07-23T00:26:40;11.43;;;6.28;;
55409;SDS011;41279;43.546;16.426;2022-07-23T00:29:06;11.20;;;5.38;;
55409;SDS011;41279;43.546;16.426;2022-07-23T00:31:31;13.23;;;6.25;;
55409;SDS011;41279;43.546;16.426;2022-07-23T00:33:57;14.73;;;5.53;;
55409;SDS011;41279;43.546;16.426;2022-07-23T00:36:23;10.82;;;5.55;;
55409;SDS011;41279;43.546;16.426;2022-07-23T00:38:49;16.20;;;6.07;;
55409;SDS011;41279;43.546;16.426;2022-07-23T00:41:15;8.00;;;5.40;;
55409;SDS011;41279;43.546;16.426;2022-07-23T00:43:41;8.77;;;5.40;;
55409;SDS011;41279;43.546;16.426;2022-07-23T00:46:07;8.15;;;5.53;;
55409;SDS011;41279;43.546;16.426;2022-07-23T00:48:32;10.50;;;5.88;;
55409;SDS011;41279;43.546;16.426;2022-07-23T00:50:58;9.68;;;4.97;;
55409;SDS011;41279;43.546;16.426;2022-07-23T00:53:23;9.20;;;5.32;;
55409;SDS011;41279;43.546;16.426;2022-07-23T00:55:56;10.57;;;5.50;;
55409;SDS011;41279;43.546;16.426;2022-07-23T00:58:23;8.07;;;5.70;;
55409;SDS011;41279;43.546;16.426;2022-07-23T01:00:49;8.73;;;4.93;;
55409;SDS011;41279;43.546;16.426;2022-07-23T01:03:14;9.27;;;5.13;;
55409;SDS011;41279;43.546;16.426;2022-07-23T01:05:40;8.57;;;4.72;;
55409;SDS011;41279;43.546;16.426;2022-07-23T01:08:05;9.38;;;5.70;;
55409;SDS011;41279;43.546;16.426;2022-07-23T01:10:31;8.35;;;5.57;;
55409;SDS011;41279;43.546;16.426;2022-07-23T01:13:06;13.68;;;7.20;;
55409;SDS011;41279;43.546;16.426;2022-07-23T01:15:34;10.85;;;7.55;;
55409;SDS011;41279;43.546;16.426;2022-07-23T01:18:01;25.13;;;8.70;;
55409;SDS011;41279;43.546;16.426;2022-07-23T01:20:28;16.63;;;8.77;;
55409;SDS011;41279;43.546;16.426;2022-07-23T01:22:54;17.80;;;8.38;;
55409;SDS011;41279;43.546;16.426;2022-07-23T01:25:20;17.40;;;7.45;;
55409;SDS011;41279;43.546;16.426;2022-07-23T01:27:45;14.15;;;5.65;;
55409;SDS011;41279;43.546;16.426;2022-07-23T01:30:11;8.13;;;5.40;;
55409;SDS011;41279;43.546;16.426;2022-07-23T01:32:37;9.48;;;5.18;;
55409;SDS011;41279;43.546;16.426;2022-07-23T01:35:03;10.38;;;5.70;;
55409;SDS011;41279;43.546;16.426;2022-07-23T01:37:29;6.97;;;5.50;;
55409;SDS011;41279;43.546;16.426;2022-07-23T01:39:55;7.93;;;5.85;;
55409;SDS011;41279;43.546;16.426;2022-07-23T01:42:20;7.78;;;5.32;;
55409;SDS011;41279;43.546;16.426;2022-07-23T01:44:45;7.63;;;5.57;;
55409;SDS011;41279;43.546;16.426;2022-07-23T01:47:11;8.48;;;5.40;;
55409;SDS011;41279;43.546;16.426;2022-07-23T01:49:36;8.82;;;5.90;;
55409;SDS011;41279;43.546;16.426;2022-07-23T01:52:02;8.13;;;5.50;;
55409;SDS011;41279;43.546;16.426;2022-07-23T01:54:28;7.38;;;5.40;;
55409;SDS011;41279;43.546;16.426;2022-07-23T01:56:55;6.85;;;4.88;;
55409;SDS011;41279;43.546;16.426;2022-07-23T01:59:21;7.03;;;4.97;;
55409;SDS011;41279;43.546;16.426;2022-07-23T02:01:47;7.75;;;5.22;;
55409;SDS011;41279;43.546;16.426;2022-07-23T02:04:13;7.00;;;4.95;;
55409;SDS011;41279;43.546;16.426;2022-07-23T02:06:39;7.93;;;4.90;;
55409;SDS011;41279;43.546;16.426;2022-07-23T02:09:04;9.70;;;4.95;;
55409;SDS011;41279;43.546;16.426;2022-07-23T02:11:29;6.75;;;5.05;;
55409;SDS011;41279;43.546;16.426;2022-07-23T02:13:55;6.03;;;5.00;;
55409;SDS011;41279;43.546;16.426;2022-07-23T02:16:20;10.85;;;4.80;;
55409;SDS011;41279;43.546;16.426;2022-07-23T02:18:45;6.82;;;4.50;;
55409;SDS011;41279;43.546;16.426;2022-07-23T02:21:11;8.25;;;4.93;;
55409;SDS011;41279;43.546;16.426;2022-07-23T02:23:37;7.82;;;5.32;;
55409;SDS011;41279;43.546;16.426;2022-07-23T02:26:02;7.63;;;5.13;;
55409;SDS011;41279;43.546;16.426;2022-07-23T02:28:28;9.05;;;5.43;;
55409;SDS011;41279;43.546;16.426;2022-07-23T02:30:53;11.10;;;5.70;;
55409;SDS011;41279;43.546;16.426;2022-07-23T02:33:18;10.45;;;5.88;;
55409;SDS011;41279;43.546;16.426;2022-07-23T02:35:44;8.50;;;5.40;;
55409;SDS011;41279;43.546;16.426;2022-07-23T02:38:09;7.60;;;5.80;;
55409;SDS011;41279;43.546;16.426;2022-07-23T02:40:34;8.43;;;5.53;;
55409;SDS011;41279;43.546;16.426;2022-07-23T02:43:00;10.50;;;5.43;;
55409;SDS011;41279;43.546;16.426;2022-07-23T02:45:25;7.53;;;6.00;;
55409;SDS011;41279;43.546;16.426;2022-07-23T02:47:51;7.72;;;5.57;;
55409;SDS011;41279;43.546;16.426;2022-07-23T02:50:16;7.72;;;5.50;;
55409;SDS011;41279;43.546;16.426;2022-07-23T02:52:42;8.85;;;6.00;;
55409;SDS011;41279;43.546;16.426;2022-07-23T02:55:07;7.38;;;5.57;;
55409;SDS011;41279;43.546;16.426;2022-07-23T02:57:33;8.02;;;5.80;;
55409;SDS011;41279;43.546;16.426;2022-07-23T02:59:58;7.68;;;6.15;;
55409;SDS011;41279;43.546;16.426;2022-07-23T03:02:24;8.63;;;4.68;;
55409;SDS011;41279;43.546;16.426;2022-07-23T03:04:49;6.35;;;5.60;;
55409;SDS011;41279;43.546;16.426;2022-07-23T03:07:18;7.07;;;6.38;;
55409;SDS011;41279;43.546;16.426;2022-07-23T03:09:43;6.22;;;4.82;;
55409;SDS011;41279;43.546;16.426;2022-07-23T03:12:09;6.95;;;4.68;;
55409;SDS011;41279;43.546;16.426;2022-07-23T03:14:34;8.43;;;4.53;;
55409;SDS011;41279;43.546;16.426;2022-07-23T03:17:00;5.85;;;4.38;;
55409;SDS011;41279;43.546;16.426;2022-07-23T03:19:25;8.77;;;4.43;;
55409;SDS011;41279;43.546;16.426;2022-07-23T03:21:51;8.80;;;5.45;;
55409;SDS011;41279;43.546;16.426;2022-07-23T03:24:17;7.35;;;5.03;;
55409;SDS011;41279;43.546;16.426;2022-07-23T03:26:43;8.23;;;4.75;;
55409;SDS011;41279;43.546;16.426;2022-07-23T03:29:09;10.38;;;5.13;;
55409;SDS011;41279;43.546;16.426;2022-07-23T03:31:34;10.07;;;5.18;;
55409;SDS011;41279;43.546;16.426;2022-07-23T03:34:00;8.93;;;4.93;;
55409;SDS011;41279;43.546;16.426;2022-07-23T03:36:26;6.75;;;4.57;;
55409;SDS011;41279;43.546;16.426;2022-07-23T03:38:51;6.30;;;5.03;;
55409;SDS011;41279;43.546;16.426;2022-07-23T03:41:18;7.32;;;4.60;;
55409;SDS011;41279;43.546;16.426;2022-07-23T03:43:43;6.70;;;5.00;;
55409;SDS011;41279;43.546;16.426;2022-07-23T03:46:09;7.88;;;6.55;;
55409;SDS011;41279;43.546;16.426;2022-07-23T03:48:34;9.25;;;5.10;;
55409;SDS011;41279;43.546;16.426;2022-07-23T03:51:00;8.52;;;6.40;;
55409;SDS011;41279;43.546;16.426;2022-07-23T03:53:25;7.85;;;5.13;;
55409;SDS011;41279;43.546;16.426;2022-07-23T03:55:51;7.80;;;5.13;;
55409;SDS011;41279;43.546;16.426;2022-07-23T03:58:16;9.18;;;5.18;;
55409;SDS011;41279;43.546;16.426;2022-07-23T04:00:41;8.88;;;5.32;;
55409;SDS011;41279;43.546;16.426;2022-07-23T04:03:07;7.90;;;5.68;;
55409;SDS011;41279;43.546;16.426;2022-07-23T04:05:32;8.05;;;5.38;;
55409;SDS011;41279;43.546;16.426;2022-07-23T04:07:58;8.48;;;5.50;;
55409;SDS011;41279;43.546;16.426;2022-07-23T04:10:23;8.43;;;5.35;;
55409;SDS011;41279;43.546;16.426;2022-07-23T04:12:48;7.28;;;5.47;;
55409;SDS011;41279;43.546;16.426;2022-07-23T04:15:14;8.18;;;5.10;;
55409;SDS011;41279;43.546;16.426;2022-07-23T04:17:39;8.40;;;4.70;;
55409;SDS011;41279;43.546;16.426;2022-07-23T04:20:05;6.85;;;4.82;;
55409;SDS011;41279;43.546;16.426;2022-07-23T04:22:30;8.43;;;4.70;;
55409;SDS011;41279;43.546;16.426;2022-07-23T04:24:56;7.00;;;4.70;;
55409;SDS011;41279;43.546;16.426;2022-07-23T04:27:21;8.98;;;5.40;;
55409;SDS011;41279;43.546;16.426;2022-07-23T04:29:46;11.75;;;5.05;;
55409;SDS011;41279;43.546;16.426;2022-07-23T04:32:12;7.57;;;5.00;;
55409;SDS011;41279;43.546;16.426;2022-07-23T04:34:37;7.63;;;5.10;;
55409;SDS011;41279;43.546;16.426;2022-07-23T04:37:03;7.07;;;5.00;;
55409;SDS011;41279;43.546;16.426;2022-07-23T04:39:28;7.35;;;5.00;;
55409;SDS011;41279;43.546;16.426;2022-07-23T04:41:53;7.18;;;4.82;;
55409;SDS011;41279;43.546;16.426;2022-07-23T04:44:19;8.82;;;5.10;;
55409;SDS011;41279;43.546;16.426;2022-07-23T04:46:44;8.25;;;5.50;;
55409;SDS011;41279;43.546;16.426;2022-07-23T04:49:09;11.15;;;5.30;;
55409;SDS011;41279;43.546;16.426;2022-07-23T04:51:35;7.57;;;4.90;;
55409;SDS011;41279;43.546;16.426;2022-07-23T04:54:00;7.10;;;5.03;;
55409;SDS011;41279;43.546;16.426;2022-07-23T04:56:25;8.65;;;4.88;;
55409;SDS011;41279;43.546;16.426;2022-07-23T04:58:51;7.13;;;4.53;;
55409;SDS011;41279;43.546;16.426;2022-07-23T05:01:16;8.35;;;5.38;;
55409;SDS011;41279;43.546;16.426;2022-07-23T05:03:42;9.23;;;5.30;;
55409;SDS011;41279;43.546;16.426;2022-07-23T05:08:29;8.23;;;4.50;;
55409;SDS011;41279;43.546;16.426;2022-07-23T05:11:01;6.78;;;4.65;;
55409;SDS011;41279;43.546;16.426;2022-07-23T05:13:26;9.35;;;4.88;;
55409;SDS011;41279;43.546;16.426;2022-07-23T05:15:52;11.20;;;5.10;;
55409;SDS011;41279;43.546;16.426;2022-07-23T05:18:17;7.00;;;4.22;;
55409;SDS011;41279;43.546;16.426;2022-07-23T05:20:42;7.18;;;5.38;;
55409;SDS011;41279;43.546;16.426;2022-07-23T05:23:08;9.25;;;5.45;;
55409;SDS011;41279;43.546;16.426;2022-07-23T05:25:33;8.63;;;5.93;;
55409;SDS011;41279;43.546;16.426;2022-07-23T05:27:59;8.32;;;4.90;;
55409;SDS011;41279;43.546;16.426;2022-07-23T05:30:24;8.40;;;5.10;;
55409;SDS011;41279;43.546;16.426;2022-07-23T05:32:49;11.57;;;6.22;;
55409;SDS011;41279;43.546;16.426;2022-07-23T05:35:15;6.70;;;5.05;;
55409;SDS011;41279;43.546;16.426;2022-07-23T05:37:41;7.28;;;5.00;;
55409;SDS011;41279;43.546;16.426;2022-07-23T05:40:07;7.10;;;4.88;;
55409;SDS011;41279;43.546;16.426;2022-07-23T05:42:34;6.35;;;4.93;;
55409;SDS011;41279;43.546;16.426;2022-07-23T05:45:00;8.85;;;4.78;;
55409;SDS011;41279;43.546;16.426;2022-07-23T05:47:26;6.22;;;4.50;;
55409;SDS011;41279;43.546;16.426;2022-07-23T05:49:51;9.30;;;4.57;;
55409;SDS011;41279;43.546;16.426;2022-07-23T05:52:17;6.65;;;4.60;;
55409;SDS011;41279;43.546;16.426;2022-07-23T05:54:42;7.88;;;4.90;;
55409;SDS011;41279;43.546;16.426;2022-07-23T05:57:08;7.32;;;4.70;;
55409;SDS011;41279;43.546;16.426;2022-07-23T05:59:33;6.35;;;4.70;;
55409;SDS011;41279;43.546;16.426;2022-07-23T06:01:58;8.68;;;5.13;;
55409;SDS011;41279;43.546;16.426;2022-07-23T06:04:24;6.50;;;5.20;;
55409;SDS011;41279;43.546;16.426;2022-07-23T06:06:49;6.82;;;5.35;;
55409;SDS011;41279;43.546;16.426;2022-07-23T06:09:14;8.48;;;5.30;;
55409;SDS011;41279;43.546;16.426;2022-07-23T06:11:40;7.90;;;5.25;;
55409;SDS011;41279;43.546;16.426;2022-07-23T06:14:06;5.88;;;4.70;;
55409;SDS011;41279;43.546;16.426;2022-07-23T06:16:31;8.35;;;4.95;;
55409;SDS011;41279;43.546;16.426;2022-07-23T06:18:57;7.50;;;5.20;;
55409;SDS011;41279;43.546;16.426;2022-07-23T06:21:22;7.80;;;4.85;;
55409;SDS011;41279;43.546;16.426;2022-07-23T06:23:47;13.48;;;6.47;;
55409;SDS011;41279;43.546;16.426;2022-07-23T06:26:13;8.20;;;5.43;;
55409;SDS011;41279;43.546;16.426;2022-07-23T06:28:38;9.00;;;5.65;;
55409;SDS011;41279;43.546;16.426;2022-07-23T06:31:04;8.82;;;4.53;;
55409;SDS011;41279;43.546;16.426;2022-07-23T06:33:29;8.13;;;5.00;;
55409;SDS011;41279;43.546;16.426;2022-07-23T06:35:54;6.43;;;4.60;;
55409;SDS011;41279;43.546;16.426;2022-07-23T06:38:20;9.80;;;5.47;;
55409;SDS011;41279;43.546;16.426;2022-07-23T06:40:45;5.50;;;4.40;;
55409;SDS011;41279;43.546;16.426;2022-07-23T06:43:10;7.15;;;4.68;;
55409;SDS011;41279;43.546;16.426;2022-07-23T06:45:36;7.20;;;4.78;;
55409;SDS011;41279;43.546;16.426;2022-07-23T06:48:02;7.28;;;5.43;;
55409;SDS011;41279;43.546;16.426;2022-07-23T06:50:28;6.88;;;5.05;;
55409;SDS011;41279;43.546;16.426;2022-07-23T06:52:53;8.43;;;5.32;;
55409;SDS011;41279;43.546;16.426;2022-07-23T06:55:19;6.10;;;5.05;;
55409;SDS011;41279;43.546;16.426;2022-07-23T06:57:44;7.55;;;5.60;;
55409;SDS011;41279;43.546;16.426;2022-07-23T07:00:10;6.40;;;5.53;;
55409;SDS011;41279;43.546;16.426;2022-07-23T07:02:36;7.72;;;5.20;;
55409;SDS011;41279;43.546;16.426;2022-07-23T07:05:01;9.63;;;6.95;;
55409;SDS011;41279;43.546;16.426;2022-07-23T07:07:27;6.88;;;5.55;;
55409;SDS011;41279;43.546;16.426;2022-07-23T07:09:53;8.85;;;6.22;;
55409;SDS011;41279;43.546;16.426;2022-07-23T07:12:18;8.45;;;5.35;;
55409;SDS011;41279;43.546;16.426;2022-07-23T07:14:43;8.43;;;5.80;;
55409;SDS011;41279;43.546;16.426;2022-07-23T07:17:09;10.75;;;6.38;;
55409;SDS011;41279;43.546;16.426;2022-07-23T07:19:35;7.90;;;6.07;;
55409;SDS011;41279;43.546;16.426;2022-07-23T07:22:01;11.73;;;6.07;;
55409;SDS011;41279;43.546;16.426;2022-07-23T07:24:26;8.98;;;6.00;;
55409;SDS011;41279;43.546;16.426;2022-07-23T07:26:52;7.82;;;6.00;;
55409;SDS011;41279;43.546;16.426;2022-07-23T07:29:17;8.63;;;6.47;;
55409;SDS011;41279;43.546;16.426;2022-07-23T07:31:42;8.25;;;6.47;;
55409;SDS011;41279;43.546;16.426;2022-07-23T07:34:08;6.97;;;5.75;;
55409;SDS011;41279;43.546;16.426;2022-07-23T07:36:34;7.07;;;6.18;;
55409;SDS011;41279;43.546;16.426;2022-07-23T07:39:02;7.03;;;5.57;;
55409;SDS011;41279;43.546;16.426;2022-07-23T07:41:28;8.45;;;6.70;;
55409;SDS011;41279;43.546;16.426;2022-07-23T07:43:53;9.20;;;5.80;;
55409;SDS011;41279;43.546;16.426;2022-07-23T07:46:19;6.20;;;4.85;;
55409;SDS011;41279;43.546;16.426;2022-07-23T07:48:44;7.07;;;4.75;;
55409;SDS011;41279;43.546;16.426;2022-07-23T07:51:09;7.50;;;5.28;;
55409;SDS011;41279;43.546;16.426;2022-07-23T07:53:35;6.22;;;4.57;;
55409;SDS011;41279;43.546;16.426;2022-07-23T07:56:00;7.38;;;4.70;;
55409;SDS011;41279;43.546;16.426;2022-07-23T07:58:25;6.72;;;4.50;;
55409;SDS011;41279;43.546;16.426;2022-07-23T08:00:51;6.40;;;4.40;;
55409;SDS011;41279;43.546;16.426;2022-07-23T08:03:16;6.25;;;4.80;;
55409;SDS011;41279;43.546;16.426;2022-07-23T08:05:42;6.88;;;4.90;;
55409;SDS011;41279;43.546;16.426;2022-07-23T08:08:07;5.65;;;4.50;;
55409;SDS011;41279;43.546;16.426;2022-07-23T08:10:34;7.45;;;4.75;;
55409;SDS011;41279;43.546;16.426;2022-07-23T08:13:00;5.65;;;4.35;;
55409;SDS011;41279;43.546;16.426;2022-07-23T08:15:27;6.38;;;4.43;;
55409;SDS011;41279;43.546;16.426;2022-07-23T08:17:53;5.95;;;4.00;;
55409;SDS011;41279;43.546;16.426;2022-07-23T08:20:20;8.00;;;5.13;;
55409;SDS011;41279;43.546;16.426;2022-07-23T08:22:49;7.40;;;6.20;;
55409;SDS011;41279;43.546;16.426;2022-07-23T08:25:15;6.28;;;5.45;;
55409;SDS011;41279;43.546;16.426;2022-07-23T08:27:44;6.82;;;4.60;;
55409;SDS011;41279;43.546;16.426;2022-07-23T08:30:10;6.70;;;4.57;;
55409;SDS011;41279;43.546;16.426;2022-07-23T08:32:51;5.63;;;4.95;;
55409;SDS011;41279;43.546;16.426;2022-07-23T08:35:31;6.80;;;4.80;;
55409;SDS011;41279;43.546;16.426;2022-07-23T08:37:59;6.38;;;5.20;;
55409;SDS011;41279;43.546;16.426;2022-07-23T08:40:27;6.10;;;4.53;;
55409;SDS011;41279;43.546;16.426;2022-07-23T08:42:54;7.82;;;5.35;;
55409;SDS011;41279;43.546;16.426;2022-07-23T08:45:21;6.13;;;5.30;;
55409;SDS011;41279;43.546;16.426;2022-07-23T08:47:55;7.25;;;5.20;;
55409;SDS011;41279;43.546;16.426;2022-07-23T08:50:23;7.00;;;4.80;;
55409;SDS011;41279;43.546;16.426;2022-07-23T08:52:50;6.65;;;5.43;;
55409;SDS011;41279;43.546;16.426;2022-07-23T08:55:17;8.23;;;6.88;;
55409;SDS011;41279;43.546;16.426;2022-07-23T08:57:43;7.25;;;4.70;;
55409;SDS011;41279;43.546;16.426;2022-07-23T09:00:10;5.90;;;4.88;;
55409;SDS011;41279;43.546;16.426;2022-07-23T09:02:40;6.32;;;5.07;;
55409;SDS011;41279;43.546;16.426;2022-07-23T09:05:07;6.70;;;4.85;;
55409;SDS011;41279;43.546;16.426;2022-07-23T09:07:33;6.90;;;5.13;;
55409;SDS011;41279;43.546;16.426;2022-07-23T09:10:09;6.85;;;5.30;;
55409;SDS011;41279;43.546;16.426;2022-07-23T09:12:36;5.45;;;4.55;;
55409;SDS011;41279;43.546;16.426;2022-07-23T09:15:03;6.10;;;4.82;;
55409;SDS011;41279;43.546;16.426;2022-07-23T09:17:39;6.90;;;4.72;;
55409;SDS011;41279;43.546;16.426;2022-07-23T09:20:10;9.30;;;5.00;;
55409;SDS011;41279;43.546;16.426;2022-07-23T09:22:38;6.47;;;4.78;;
55409;SDS011;41279;43.546;16.426;2022-07-23T09:25:38;5.72;;;4.35;;
55409;SDS011;41279;43.546;16.426;2022-07-23T09:27:57;6.00;;;4.53;;
55409;SDS011;41279;43.546;16.426;2022-07-23T09:30:28;6.43;;;4.20;;
55409;SDS011;41279;43.546;16.426;2022-07-23T09:33:06;6.72;;;4.68;;
55409;SDS011;41279;43.546;16.426;2022-07-23T09:35:50;7.90;;;4.55;;
55409;SDS011;41279;43.546;16.426;2022-07-23T09:38:17;5.28;;;4.20;;
55409;SDS011;41279;43.546;16.426;2022-07-23T09:40:44;7.18;;;4.22;;
55409;SDS011;41279;43.546;16.426;2022-07-23T09:43:11;5.80;;;4.38;;
55409;SDS011;41279;43.546;16.426;2022-07-23T09:45:37;6.22;;;4.10;;
55409;SDS011;41279;43.546;16.426;2022-07-23T09:50:42;5.90;;;4.32;;
55409;SDS011;41279;43.546;16.426;2022-07-23T09:53:08;5.53;;;4.20;;
55409;SDS011;41279;43.546;16.426;2022-07-23T09:55:34;6.82;;;4.30;;
55409;SDS011;41279;43.546;16.426;2022-07-23T09:58:02;5.10;;;4.00;;
55409;SDS011;41279;43.546;16.426;2022-07-23T10:00:28;5.07;;;4.00;;
55409;SDS011;41279;43.546;16.426;2022-07-23T10:02:56;5.45;;;4.30;;
55409;SDS011;41279;43.546;16.426;2022-07-23T10:05:22;8.65;;;7.20;;
55409;SDS011;41279;43.546;16.426;2022-07-23T10:07:49;4.70;;;3.97;;
55409;SDS011;41279;43.546;16.426;2022-07-23T10:10:16;8.43;;;4.53;;
55409;SDS011;41279;43.546;16.426;2022-07-23T10:12:43;5.57;;;4.20;;
55409;SDS011;41279;43.546;16.426;2022-07-23T10:15:09;5.65;;;4.00;;
55409;SDS011;41279;43.546;16.426;2022-07-23T10:17:35;5.13;;;4.07;;
55409;SDS011;41279;43.546;16.426;2022-07-23T10:20:01;7.80;;;4.20;;
55409;SDS011;41279;43.546;16.426;2022-07-23T10:22:32;6.45;;;4.15;;
55409;SDS011;41279;43.546;16.426;2022-07-23T10:25:09;6.28;;;4.10;;
55409;SDS011;41279;43.546;16.426;2022-07-23T10:28:24;6.25;;;3.80;;
55409;SDS011;41279;43.546;16.426;2022-07-23T10:30:51;5.13;;;4.10;;
55409;SDS011;41279;43.546;16.426;2022-07-23T10:36:28;5.20;;;4.00;;
55409;SDS011;41279;43.546;16.426;2022-07-23T10:41:49;4.63;;;3.78;;
55409;SDS011;41279;43.546;16.426;2022-07-23T10:44:17;5.65;;;4.10;;
55409;SDS011;41279;43.546;16.426;2022-07-23T10:47:00;6.35;;;4.03;;
55409;SDS011;41279;43.546;16.426;2022-07-23T10:49:48;6.03;;;4.07;;
55409;SDS011;41279;43.546;16.426;2022-07-23T10:54:46;5.22;;;3.97;;
55409;SDS011;41279;43.546;16.426;2022-07-23T10:57:12;6.45;;;3.88;;
55409;SDS011;41279;43.546;16.426;2022-07-23T11:02:34;5.13;;;4.05;;
55409;SDS011;41279;43.546;16.426;2022-07-23T11:05:01;4.57;;;4.07;;
55409;SDS011;41279;43.546;16.426;2022-07-23T11:07:29;6.03;;;4.10;;
55409;SDS011;41279;43.546;16.426;2022-07-23T11:09:55;4.90;;;3.80;;
55409;SDS011;41279;43.546;16.426;2022-07-23T11:18:16;6.30;;;4.05;;
55409;SDS011;41279;43.546;16.426;2022-07-23T11:20:17;4.50;;;3.90;;
55409;SDS011;41279;43.546;16.426;2022-07-23T11:25:11;5.43;;;4.10;;
55409;SDS011;41279;43.546;16.426;2022-07-23T11:27:38;6.55;;;4.20;;
55409;SDS011;41279;43.546;16.426;2022-07-23T11:30:08;6.28;;;4.10;;
55409;SDS011;41279;43.546;16.426;2022-07-23T11:32:39;5.40;;;3.65;;
55409;SDS011;41279;43.546;16.426;2022-07-23T11:35:18;5.13;;;3.58;;
55409;SDS011;41279;43.546;16.426;2022-07-23T11:37:46;4.78;;;3.78;;
55409;SDS011;41279;43.546;16.426;2022-07-23T11:40:13;6.00;;;3.67;;
55409;SDS011;41279;43.546;16.426;2022-07-23T11:45:45;4.57;;;3.55;;
55409;SDS011;41279;43.546;16.426;2022-07-23T11:48:31;5.68;;;3.50;;
55409;SDS011;41279;43.546;16.426;2022-07-23T11:50:57;4.63;;;3.72;;
55409;SDS011;41279;43.546;16.426;2022-07-23T11:55:53;4.38;;;3.17;;
55409;SDS011;41279;43.546;16.426;2022-07-23T11:58:20;5.85;;;4.00;;
55409;SDS011;41279;43.546;16.426;2022-07-23T12:00:46;6.47;;;3.72;;
55409;SDS011;41279;43.546;16.426;2022-07-23T12:03:11;5.10;;;3.30;;
55409;SDS011;41279;43.546;16.426;2022-07-23T12:05:37;6.82;;;3.75;;
55409;SDS011;41279;43.546;16.426;2022-07-23T12:08:04;4.97;;;3.72;;
55409;SDS011;41279;43.546;16.426;2022-07-23T12:10:35;5.88;;;4.07;;
55409;SDS011;41279;43.546;16.426;2022-07-23T12:13:09;4.80;;;3.65;;
55409;SDS011;41279;43.546;16.426;2022-07-23T12:15:41;6.23;;;3.80;;
55409;SDS011;41279;43.546;16.426;2022-07-23T12:18:10;6.75;;;3.90;;
55409;SDS011;41279;43.546;16.426;2022-07-23T12:20:38;5.57;;;3.60;;
55409;SDS011;41279;43.546;16.426;2022-07-23T12:23:07;6.32;;;3.83;;
55409;SDS011;41279;43.546;16.426;2022-07-23T12:25:34;5.00;;;4.10;;
55409;SDS011;41279;43.546;16.426;2022-07-23T12:28:06;5.60;;;3.97;;
55409;SDS011;41279;43.546;16.426;2022-07-23T12:30:44;5.03;;;4.10;;
55409;SDS011;41279;43.546;16.426;2022-07-23T12:33:10;4.68;;;3.85;;
55409;SDS011;41279;43.546;16.426;2022-07-23T12:35:38;6.70;;;4.40;;
55409;SDS011;41279;43.546;16.426;2022-07-23T12:38:13;5.43;;;3.72;;
55409;SDS011;41279;43.546;16.426;2022-07-23T12:43:09;4.97;;;4.10;;
55409;SDS011;41279;43.546;16.426;2022-07-23T12:45:45;4.85;;;3.80;;
55409;SDS011;41279;43.546;16.426;2022-07-23T12:48:55;5.70;;;3.92;;
55409;SDS011;41279;43.546;16.426;2022-07-23T12:51:06;4.63;;;3.55;;
55409;SDS011;41279;43.546;16.426;2022-07-23T12:53:39;4.68;;;3.47;;
55409;SDS011;41279;43.546;16.426;2022-07-23T12:56:11;5.15;;;3.75;;
55409;SDS011;41279;43.546;16.426;2022-07-23T12:58:40;4.45;;;3.45;;
55409;SDS011;41279;43.546;16.426;2022-07-23T13:01:56;4.50;;;3.30;;
55409;SDS011;41279;43.546;16.426;2022-07-23T13:06:32;4.45;;;2.90;;
55409;SDS011;41279;43.546;16.426;2022-07-23T13:08:59;3.70;;;2.70;;
55409;SDS011;41279;43.546;16.426;2022-07-23T13:11:25;4.50;;;2.90;;
55409;SDS011;41279;43.546;16.426;2022-07-23T13:13:50;5.10;;;3.10;;
55409;SDS011;41279;43.546;16.426;2022-07-23T13:16:16;5.68;;;3.55;;
55409;SDS011;41279;43.546;16.426;2022-07-23T13:18:42;4.22;;;3.13;;
55409;SDS011;41279;43.546;16.426;2022-07-23T13:21:07;4.78;;;2.90;;
55409;SDS011;41279;43.546;16.426;2022-07-23T13:23:33;4.60;;;2.90;;
55409;SDS011;41279;43.546;16.426;2022-07-23T13:25:59;4.65;;;2.83;;
55409;SDS011;41279;43.546;16.426;2022-07-23T13:28:24;4.35;;;3.20;;
55409;SDS011;41279;43.546;16.426;2022-07-23T13:30:50;3.83;;;2.50;;
55409;SDS011;41279;43.546;16.426;2022-07-23T13:33:17;6.55;;;3.33;;
55409;SDS011;41279;43.546;16.426;2022-07-23T13:35:43;4.07;;;2.50;;
55409;SDS011;41279;43.546;16.426;2022-07-23T13:38:09;4.00;;;2.60;;
55409;SDS011;41279;43.546;16.426;2022-07-23T13:40:35;3.40;;;2.15;;
55409;SDS011;41279;43.546;16.426;2022-07-23T13:43:04;3.60;;;2.50;;
55409;SDS011;41279;43.546;16.426;2022-07-23T13:45:33;4.63;;;2.58;;
55409;SDS011;41279;43.546;16.426;2022-07-23T13:47:59;4.03;;;2.55;;
55409;SDS011;41279;43.546;16.426;2022-07-23T13:50:24;4.40;;;2.95;;
55409;SDS011;41279;43.546;16.426;2022-07-23T13:52:50;4.60;;;2.50;;
55409;SDS011;41279;43.546;16.426;2022-07-23T13:55:15;4.25;;;2.70;;
55409;SDS011;41279;43.546;16.426;2022-07-23T13:57:41;4.78;;;2.60;;
55409;SDS011;41279;43.546;16.426;2022-07-23T14:00:07;3.95;;;2.60;;
55409;SDS011;41279;43.546;16.426;2022-07-23T14:02:35;5.05;;;2.50;;
55409;SDS011;41279;43.546;16.426;2022-07-23T14:05:01;4.20;;;2.75;;
55409;SDS011;41279;43.546;16.426;2022-07-23T14:07:27;4.97;;;3.10;;
55409;SDS011;41279;43.546;16.426;2022-07-23T14:09:53;4.50;;;2.80;;
55409;SDS011;41279;43.546;16.426;2022-07-23T14:12:18;4.25;;;2.70;;
55409;SDS011;41279;43.546;16.426;2022-07-23T14:14:44;4.28;;;2.60;;
55409;SDS011;41279;43.546;16.426;2022-07-23T14:17:09;3.90;;;2.78;;
55409;SDS011;41279;43.546;16.426;2022-07-23T14:19:35;5.15;;;2.90;;
55409;SDS011;41279;43.546;16.426;2022-07-23T14:22:00;5.15;;;2.60;;
55409;SDS011;41279;43.546;16.426;2022-07-23T14:24:26;4.38;;;2.50;;
55409;SDS011;41279;43.546;16.426;2022-07-23T14:26:51;4.07;;;2.58;;
55409;SDS011;41279;43.546;16.426;2022-07-23T14:29:16;4.63;;;2.58;;
55409;SDS011;41279;43.546;16.426;2022-07-23T14:31:42;4.15;;;2.40;;
55409;SDS011;41279;43.546;16.426;2022-07-23T14:34:07;3.70;;;2.55;;
55409;SDS011;41279;43.546;16.426;2022-07-23T14:36:33;3.85;;;2.50;;
55409;SDS011;41279;43.546;16.426;2022-07-23T14:38:58;4.43;;;2.50;;
55409;SDS011;41279;43.546;16.426;2022-07-23T14:41:25;3.58;;;2.30;;
55409;SDS011;41279;43.546;16.426;2022-07-23T14:43:50;4.28;;;2.63;;
55409;SDS011;41279;43.546;16.426;2022-07-23T14:46:15;5.43;;;2.63;;
55409;SDS011;41279;43.546;16.426;2022-07-23T14:48:41;4.35;;;3.13;;
55409;SDS011;41279;43.546;16.426;2022-07-23T14:51:06;3.58;;;2.50;;
55409;SDS011;41279;43.546;16.426;2022-07-23T14:53:32;4.03;;;2.50;;
55409;SDS011;41279;43.546;16.426;2022-07-23T14:55:57;3.90;;;2.30;;
55409;SDS011;41279;43.546;16.426;2022-07-23T14:58:23;4.82;;;2.47;;
55409;SDS011;41279;43.546;16.426;2022-07-23T15:00:50;4.90;;;3.13;;
55409;SDS011;41279;43.546;16.426;2022-07-23T15:03:16;3.63;;;2.50;;
55409;SDS011;41279;43.546;16.426;2022-07-23T15:05:41;4.38;;;3.15;;
55409;SDS011;41279;43.546;16.426;2022-07-23T15:08:07;5.18;;;2.70;;